createdAt,value
2023-03-16T00:01:55.404Z,9.58
2023-03-16T00:03:59.372Z,9.59
2023-03-16T00:06:04.653Z,9.61
2023-03-16T00:08:08.768Z,9.62
2023-03-16T00:10:14.440Z,9.63
2023-03-16T00:12:20.701Z,9.65
2023-03-16T00:14:24.622Z,9.65
2023-03-16T00:16:46.600Z,9.66
2023-03-16T00:18:50.417Z,9.68
2023-03-16T00:20:55.542Z,9.70
2023-03-16T00:23:03.139Z,9.69
2023-03-16T00:25:08.348Z,9.70
2023-03-16T00:27:14.972Z,9.74
2023-03-16T00:29:18.668Z,9.75
2023-03-16T00:31:25.248Z,9.73
2023-03-16T00:33:29.295Z,9.74
2023-03-16T00:35:34.888Z,9.74
2023-03-16T00:37:39.973Z,9.73
2023-03-16T00:39:46.198Z,9.72
2023-03-16T00:41:49.798Z,9.75
2023-03-16T00:43:53.976Z,9.74
2023-03-16T00:46:06.927Z,9.73
2023-03-16T00:48:11.581Z,9.78
2023-03-16T00:50:15.877Z,9.79
2023-03-16T00:52:19.667Z,9.81
2023-03-16T00:54:23.275Z,9.83
2023-03-16T00:56:29.376Z,9.83
2023-03-16T00:58:36.283Z,9.83
2023-03-16T01:00:40.616Z,9.83
2023-03-16T01:02:45.734Z,9.85
2023-03-16T01:04:49.441Z,9.86
2023-03-16T01:06:53.189Z,9.86
2023-03-16T01:08:56.840Z,9.87
2023-03-16T01:11:04.872Z,9.87
2023-03-16T01:13:10.125Z,9.86
2023-03-16T01:15:13.863Z,9.85
2023-03-16T01:17:18.397Z,9.83
2023-03-16T01:19:23.020Z,9.82
2023-03-16T01:21:27.490Z,9.81
2023-03-16T01:23:31.766Z,9.78
2023-03-16T01:25:35.662Z,9.77
2023-03-16T01:27:39.478Z,9.75
2023-03-16T01:29:45.002Z,9.75
2023-03-16T01:31:50.039Z,9.73
2023-03-16T01:33:54.170Z,9.72
2023-03-16T01:36:03.654Z,9.70
2023-03-16T01:38:14.678Z,9.69
2023-03-16T01:40:18.761Z,9.68
2023-03-16T01:42:22.576Z,9.66
2023-03-16T01:44:31.075Z,9.64
2023-03-16T01:46:44.629Z,9.63
2023-03-16T01:49:01.741Z,9.63
2023-03-16T01:51:11.157Z,9.61
2023-03-16T01:53:14.550Z,9.61
2023-03-16T01:55:18.483Z,9.64
2023-03-16T01:57:23.846Z,9.65
2023-03-16T01:59:31.677Z,9.67
2023-03-16T02:01:35.213Z,9.67
2023-03-16T02:03:41.828Z,9.70
2023-03-16T02:05:59.246Z,9.72
2023-03-16T02:08:04.097Z,9.72
2023-03-16T02:10:10.148Z,9.74
2023-03-16T02:12:18.353Z,9.75
2023-03-16T02:14:25.921Z,9.75
2023-03-16T02:16:29.463Z,9.76
2023-03-16T02:18:32.967Z,9.78
2023-03-16T02:20:44.315Z,9.80
2023-03-16T02:22:50.315Z,9.82
2023-03-16T02:24:53.997Z,9.86
2023-03-16T02:27:00.521Z,9.89
2023-03-16T02:29:19.518Z,9.91
2023-03-16T02:31:25.991Z,9.93
2023-03-16T02:33:33.626Z,9.94
2023-03-16T02:35:37.014Z,9.94
2023-03-16T02:37:40.653Z,9.93
2023-03-16T02:39:44.881Z,9.92
2023-03-16T02:41:52.458Z,9.91
2023-03-16T02:44:01.633Z,9.89
2023-03-16T02:46:09.678Z,9.88
2023-03-16T02:48:22.430Z,9.87
2023-03-16T02:50:26.053Z,9.87
2023-03-16T02:52:29.511Z,9.86
2023-03-16T02:54:32.835Z,9.87
2023-03-16T02:56:36.117Z,9.86
2023-03-16T02:58:39.435Z,9.86
2023-03-16T03:00:48.305Z,9.86
2023-03-16T03:02:53.828Z,9.88
2023-03-16T03:04:58.556Z,9.88
2023-03-16T03:07:05.061Z,9.88
2023-03-16T03:09:19.594Z,9.88
2023-03-16T03:11:25.055Z,9.87
2023-03-16T03:13:28.537Z,9.86
2023-03-16T03:15:31.856Z,9.86
2023-03-16T03:17:43.091Z,9.89
2023-03-16T03:19:47.068Z,9.90
2023-03-16T03:21:52.125Z,9.91
2023-03-16T03:23:55.855Z,9.91
2023-03-16T03:25:59.493Z,9.95
2023-03-16T03:28:05.621Z,9.97
2023-03-16T03:30:10.798Z,9.97
2023-03-16T03:32:14.317Z,9.97
2023-03-16T03:34:17.655Z,9.98
2023-03-16T03:36:22.297Z,9.99
2023-03-16T03:38:27.779Z,10.00
2023-03-16T03:40:31.819Z,10.03
2023-03-16T03:42:39.074Z,10.02
2023-03-16T03:44:42.464Z,10.02
2023-03-16T03:46:47.199Z,10.02
2023-03-16T03:48:51.062Z,10.00
2023-03-16T03:50:54.922Z,10.00
2023-03-16T03:53:10.301Z,9.99
2023-03-16T03:55:32.361Z,9.98
2023-03-16T03:57:37.360Z,9.96
2023-03-16T03:59:43.842Z,9.96
2023-03-16T04:01:53.945Z,9.96
2023-03-16T04:03:59.496Z,9.95
2023-03-16T04:06:02.825Z,9.97
2023-03-16T04:08:07.774Z,9.97
2023-03-16T04:10:12.195Z,9.99
2023-03-16T04:12:19.660Z,10.00
2023-03-16T04:14:23.744Z,10.02
2023-03-16T04:16:28.124Z,10.02
2023-03-16T04:18:38.650Z,10.01
2023-03-16T04:20:43.668Z,10.01
2023-03-16T04:22:58.464Z,10.01
2023-03-16T04:25:03.135Z,9.99
2023-03-16T04:27:06.765Z,10.00
2023-03-16T04:29:11.509Z,9.98
2023-03-16T04:31:15.734Z,9.99
2023-03-16T04:33:22.193Z,10.01
2023-03-16T04:35:25.974Z,10.02
2023-03-16T04:37:32.821Z,10.02
2023-03-16T04:39:36.296Z,10.01
2023-03-16T04:41:39.603Z,10.02
2023-03-16T04:43:48.320Z,10.03
2023-03-16T04:45:58.940Z,10.03
2023-03-16T04:48:05.762Z,10.04
2023-03-16T04:50:10.581Z,10.03
2023-03-16T04:52:14.289Z,10.04
2023-03-16T04:54:17.806Z,10.04
2023-03-16T04:56:21.588Z,10.05
2023-03-16T04:58:30.958Z,10.06
2023-03-16T05:00:37.300Z,10.06
2023-03-16T05:02:52.962Z,10.06
2023-03-16T05:04:56.355Z,10.05
2023-03-16T05:06:59.817Z,10.06
2023-03-16T05:09:09.186Z,10.05
2023-03-16T05:11:14.842Z,10.05
2023-03-16T05:13:29.264Z,10.06
2023-03-16T05:15:35.635Z,10.05
2023-03-16T05:17:49.361Z,10.05
2023-03-16T05:19:54.193Z,10.04
2023-03-16T05:21:58.682Z,10.03
2023-03-16T05:24:02.392Z,10.02
2023-03-16T05:26:05.813Z,10.01
2023-03-16T05:28:12.639Z,10.03
2023-03-16T05:30:31.608Z,10.01
2023-03-16T05:32:38.443Z,10.00
2023-03-16T05:34:43.429Z,10.01
2023-03-16T05:36:48.952Z,10.00
2023-03-16T05:38:54.025Z,9.99
2023-03-16T05:41:06.125Z,9.97
2023-03-16T05:43:30.585Z,9.97
2023-03-16T05:45:35.220Z,9.97
2023-03-16T05:47:46.065Z,9.95
2023-03-16T05:49:50.214Z,9.95
2023-03-16T05:52:04.293Z,9.93
2023-03-16T05:54:09.880Z,9.93
2023-03-16T05:56:20.360Z,9.92
2023-03-16T05:58:23.667Z,9.92
2023-03-16T06:00:30.081Z,9.92
2023-03-16T06:02:46.608Z,9.92
2023-03-16T06:04:50.028Z,9.91
2023-03-16T06:06:53.448Z,9.92
2023-03-16T06:09:01.598Z,9.93
2023-03-16T06:11:05.948Z,9.92
2023-03-16T06:13:09.600Z,9.94
2023-03-16T06:15:13.992Z,9.96
2023-03-16T06:17:17.693Z,9.95
2023-03-16T06:19:21.760Z,9.96
2023-03-16T06:21:29.852Z,10.01
2023-03-16T06:23:39.714Z,10.03
2023-03-16T06:25:48.014Z,10.06
2023-03-16T06:27:51.534Z,10.08
2023-03-16T06:29:56.205Z,10.07
2023-03-16T06:31:59.724Z,10.09
2023-03-16T06:34:03.250Z,10.08
2023-03-16T06:36:08.913Z,10.07
2023-03-16T06:38:16.365Z,10.07
2023-03-16T06:40:47.376Z,10.08
2023-03-16T06:42:51.441Z,10.07
2023-03-16T06:44:55.182Z,10.07
2023-03-16T06:46:58.592Z,10.07
2023-03-16T06:49:02.203Z,10.06
2023-03-16T06:51:07.743Z,10.07
2023-03-16T06:53:12.966Z,10.07
2023-03-16T06:55:17.560Z,10.07
2023-03-16T06:57:24.648Z,10.09
2023-03-16T06:59:27.991Z,10.10
2023-03-16T07:01:31.954Z,10.11
2023-03-16T07:03:35.590Z,10.10
2023-03-16T07:05:49.345Z,10.13
2023-03-16T07:07:52.833Z,10.15
2023-03-16T07:09:56.992Z,10.14
2023-03-16T07:12:00.435Z,10.12
2023-03-16T07:14:05.170Z,10.09
2023-03-16T07:16:09.869Z,10.09
2023-03-16T07:18:13.529Z,10.07
2023-03-16T07:20:18.151Z,10.06
2023-03-16T07:22:22.137Z,10.05
2023-03-16T07:24:25.559Z,10.06
2023-03-16T07:26:29.294Z,10.06
2023-03-16T07:28:35.984Z,10.08
2023-03-16T07:30:53.310Z,10.09
2023-03-16T07:33:07.214Z,10.09
2023-03-16T07:35:11.680Z,10.10
2023-03-16T07:37:18.401Z,10.10
2023-03-16T07:39:25.432Z,10.12
2023-03-16T07:41:35.357Z,10.13
2023-03-16T07:43:51.936Z,10.12
2023-03-16T07:45:58.558Z,10.12
2023-03-16T07:48:03.363Z,10.12
2023-03-16T07:50:19.543Z,10.14
2023-03-16T07:52:26.550Z,10.15
2023-03-16T07:54:30.604Z,10.18
2023-03-16T07:56:47.886Z,10.21
2023-03-16T07:59:04.740Z,10.23
2023-03-16T08:01:12.124Z,10.24
2023-03-16T08:03:16.071Z,10.24
2023-03-16T08:05:21.935Z,10.29
2023-03-16T08:07:32.182Z,10.31
2023-03-16T08:09:41.798Z,10.35
2023-03-16T08:11:47.938Z,10.38
2023-03-16T08:13:54.230Z,10.43
2023-03-16T08:16:02.193Z,10.48
2023-03-16T08:32:00.454Z,10.55
2023-03-16T08:34:10.291Z,10.58
2023-03-16T08:36:21.258Z,10.61
2023-03-16T08:38:27.430Z,10.65
2023-03-16T08:40:35.315Z,10.73
2023-03-16T08:42:40.111Z,10.78
2023-03-16T08:44:46.187Z,10.84
2023-03-16T08:46:49.786Z,10.90
2023-03-16T08:48:56.032Z,10.96
2023-03-16T08:51:03.669Z,10.99
2023-03-16T08:53:07.792Z,11.04
2023-03-16T08:55:13.465Z,11.05
2023-03-16T08:57:17.706Z,11.06
2023-03-16T08:59:29.738Z,11.10
2023-03-16T09:01:34.937Z,11.20
2023-03-16T09:03:38.703Z,11.32
2023-03-16T09:05:43.866Z,11.54
2023-03-16T09:07:49.020Z,11.77
2023-03-16T09:09:52.958Z,12.01
2023-03-16T09:11:57.236Z,12.25
2023-03-16T09:14:01.841Z,12.44
2023-03-16T09:16:06.022Z,12.59
2023-03-16T09:18:10.642Z,12.64
2023-03-16T09:20:29.588Z,12.65
2023-03-16T09:22:35.749Z,12.63
2023-03-16T09:24:39.203Z,12.73
2023-03-16T09:26:42.863Z,12.95
2023-03-16T09:28:46.928Z,13.15
2023-03-16T09:30:51.063Z,13.40
2023-03-16T09:32:55.105Z,13.68
2023-03-16T09:34:59.177Z,13.75
2023-03-16T09:37:03.325Z,13.87
2023-03-16T09:39:08.957Z,14.11
2023-03-16T09:41:27.898Z,14.36
2023-03-16T09:43:59.050Z,14.66
2023-03-16T09:46:12.156Z,15.00
2023-03-16T09:48:18.897Z,15.19
2023-03-16T09:50:32.433Z,15.30
2023-03-16T09:52:50.917Z,15.31
2023-03-16T09:55:01.169Z,15.26
2023-03-16T09:57:06.570Z,15.10
2023-03-16T09:59:14.590Z,14.84
2023-03-16T10:01:45.345Z,14.70
2023-03-16T10:04:03.864Z,14.69
2023-03-16T10:06:11.776Z,14.93
2023-03-16T10:08:22.679Z,15.13
2023-03-16T10:10:45.384Z,15.23
2023-03-16T10:12:52.698Z,15.26
2023-03-16T10:14:59.718Z,15.15
2023-03-16T10:17:08.603Z,15.05
2023-03-16T10:19:18.850Z,15.09
2023-03-16T10:21:23.762Z,15.18
2023-03-16T10:23:27.681Z,15.17
2023-03-16T10:25:41.132Z,15.16
2023-03-16T10:27:46.548Z,15.05
2023-03-16T10:29:50.776Z,15.00
2023-03-16T10:32:01.964Z,14.95
2023-03-16T10:34:07.572Z,14.99
2023-03-16T10:36:25.667Z,15.07
2023-03-16T10:38:33.041Z,15.21
2023-03-16T10:40:40.840Z,15.38
2023-03-16T10:42:44.490Z,15.44
2023-03-16T10:44:48.550Z,15.39
2023-03-16T10:47:00.090Z,15.40
2023-03-16T10:49:03.774Z,15.37
2023-03-16T10:51:13.333Z,15.44
2023-03-16T10:53:21.433Z,15.46
2023-03-16T10:55:29.228Z,15.51
2023-03-16T10:57:36.747Z,15.59
2023-03-16T10:59:40.616Z,15.60
2023-03-16T11:01:47.286Z,15.52
2023-03-16T11:03:53.775Z,15.47
2023-03-16T11:06:02.991Z,15.57
2023-03-16T11:08:13.796Z,15.72
2023-03-16T11:10:30.564Z,15.82
2023-03-16T11:12:36.885Z,15.97
2023-03-16T11:14:45.245Z,16.02
2023-03-16T11:16:52.716Z,16.13
2023-03-16T11:18:59.683Z,16.19
2023-03-16T11:21:09.693Z,16.18
2023-03-16T11:23:19.845Z,16.13
2023-03-16T11:25:30.770Z,16.05
2023-03-16T11:27:43.683Z,15.96
2023-03-16T11:29:59.627Z,15.92
2023-03-16T11:32:07.545Z,15.90
2023-03-16T11:34:16.489Z,15.81
2023-03-16T11:36:33.753Z,15.69
2023-03-16T11:38:46.484Z,15.59
2023-03-16T11:41:00.726Z,15.48
2023-03-16T11:43:19.778Z,15.44
2023-03-16T11:45:35.002Z,15.43
2023-03-16T11:48:03.445Z,15.31
2023-03-16T11:50:16.336Z,15.19
2023-03-16T11:52:33.076Z,15.08
2023-03-16T11:54:49.017Z,14.96
2023-03-16T11:56:59.251Z,14.89
2023-03-16T11:59:21.662Z,14.93
2023-03-16T12:01:31.535Z,14.95
2023-03-16T12:03:54.154Z,14.88
2023-03-16T12:06:07.817Z,14.96
2023-03-16T12:08:30.994Z,14.97
2023-03-16T12:10:37.677Z,14.95
2023-03-16T12:12:56.949Z,14.80
2023-03-16T12:15:17.235Z,14.61
2023-03-16T12:17:26.365Z,14.47
2023-03-16T12:19:40.691Z,14.34
2023-03-16T12:21:48.889Z,14.20
2023-03-16T12:23:55.523Z,14.17
2023-03-16T12:26:01.119Z,14.19
2023-03-16T12:28:14.252Z,14.26
2023-03-16T12:30:28.406Z,14.33
2023-03-16T12:32:44.173Z,14.41
2023-03-16T12:34:51.763Z,14.49
2023-03-16T12:37:20.112Z,14.52
2023-03-16T12:39:35.103Z,14.50
2023-03-16T12:41:47.610Z,14.45
2023-03-16T12:44:01.689Z,14.37
2023-03-16T12:46:12.723Z,14.28
2023-03-16T12:48:27.376Z,14.22
2023-03-16T12:50:31.992Z,14.17
2023-03-16T12:52:43.802Z,14.13
2023-03-16T12:54:54.995Z,14.11
2023-03-16T12:57:03.891Z,14.12
2023-03-16T12:59:10.254Z,14.14
2023-03-16T13:01:17.131Z,14.15
2023-03-16T13:03:23.381Z,14.15
2023-03-16T13:05:33.009Z,14.13
2023-03-16T13:07:37.967Z,14.12
2023-03-16T13:09:46.704Z,14.12
2023-03-16T13:11:51.670Z,14.07
2023-03-16T13:14:11.163Z,13.99
2023-03-16T13:16:27.511Z,13.98
2023-03-16T13:18:37.439Z,13.99
2023-03-16T13:20:54.161Z,14.05
2023-03-16T13:23:22.355Z,14.07
2023-03-16T13:25:42.288Z,14.11
2023-03-16T13:27:49.451Z,14.17
2023-03-16T13:29:58.771Z,14.18
2023-03-16T13:32:09.871Z,14.22
2023-03-16T13:34:16.839Z,14.24
2023-03-16T13:36:20.984Z,14.29
2023-03-16T13:38:27.728Z,14.27
2023-03-16T13:40:31.601Z,14.27
2023-03-16T13:42:35.990Z,14.29
2023-03-16T13:44:42.434Z,14.28
2023-03-16T13:46:51.244Z,14.27
2023-03-16T13:49:00.971Z,14.21
2023-03-16T13:51:04.829Z,14.19
2023-03-16T13:53:17.074Z,14.19
2023-03-16T13:55:29.470Z,14.22
2023-03-16T13:57:38.427Z,14.26
2023-03-16T13:59:45.232Z,14.21
2023-03-16T14:01:50.252Z,14.18
2023-03-16T14:03:57.031Z,14.18
2023-03-16T14:06:02.212Z,14.14
2023-03-16T14:08:15.580Z,14.13
2023-03-16T14:10:20.929Z,14.09
2023-03-16T14:12:27.593Z,14.09
2023-03-16T14:14:33.286Z,14.14
2023-03-16T14:16:37.180Z,14.19
2023-03-16T14:18:43.517Z,14.26
2023-03-16T14:20:48.773Z,14.32
2023-03-16T14:22:54.019Z,14.37
2023-03-16T14:25:01.238Z,14.43
2023-03-16T14:27:18.748Z,14.50
2023-03-16T14:29:26.701Z,14.51
2023-03-16T14:31:35.806Z,14.58
2023-03-16T14:33:42.996Z,14.67
2023-03-16T14:35:49.554Z,14.77
2023-03-16T14:37:57.051Z,14.86
2023-03-16T14:40:06.131Z,14.95
2023-03-16T14:42:20.957Z,15.07
2023-03-16T14:44:29.271Z,15.14
2023-03-16T14:46:36.209Z,15.13
2023-03-16T14:48:41.387Z,15.10
2023-03-16T14:50:46.077Z,15.03
2023-03-16T14:52:53.628Z,14.97
2023-03-16T14:54:57.281Z,14.93
2023-03-16T14:57:03.422Z,14.87
2023-03-16T14:59:07.139Z,14.88
2023-03-16T15:01:18.268Z,14.92
2023-03-16T15:03:25.416Z,14.93
2023-03-16T15:05:36.580Z,14.89
2023-03-16T15:07:45.869Z,14.80
2023-03-16T15:09:52.562Z,14.72
2023-03-16T15:11:58.465Z,14.70
2023-03-16T15:14:14.759Z,14.68
2023-03-16T15:16:19.017Z,14.62
2023-03-16T15:18:22.719Z,14.57
2023-03-16T15:20:32.358Z,14.53
2023-03-16T15:22:39.934Z,14.49
2023-03-16T15:24:43.563Z,14.47
2023-03-16T15:26:49.068Z,14.48
2023-03-16T15:28:52.931Z,14.46
2023-03-16T15:30:58.076Z,14.42
2023-03-16T15:33:02.247Z,14.41
2023-03-16T15:35:06.835Z,14.34
2023-03-16T15:37:14.983Z,14.32
2023-03-16T15:39:23.981Z,14.25
2023-03-16T15:41:32.394Z,14.24
2023-03-16T15:43:45.317Z,14.22
2023-03-16T15:45:49.310Z,14.26
2023-03-16T15:47:55.396Z,14.31
2023-03-16T15:49:58.970Z,14.34
2023-03-16T15:52:03.116Z,14.36
2023-03-16T15:54:09.866Z,14.40
2023-03-16T15:56:19.275Z,14.42
2023-03-16T15:58:27.907Z,14.44
2023-03-16T16:00:35.588Z,14.43
2023-03-16T16:02:39.293Z,14.41
2023-03-16T16:04:43.944Z,14.35
2023-03-16T16:06:48.040Z,14.30
2023-03-16T16:08:51.922Z,14.30
2023-03-16T16:10:56.533Z,14.29
2023-03-16T16:13:01.357Z,14.28
2023-03-16T16:15:05.592Z,14.27
2023-03-16T16:17:16.247Z,14.19
2023-03-16T16:19:20.066Z,14.14
2023-03-16T16:21:26.927Z,14.10
2023-03-16T16:23:32.541Z,14.07
2023-03-16T16:25:40.541Z,14.07
2023-03-16T16:27:44.401Z,14.07
2023-03-16T16:29:47.993Z,14.06
2023-03-16T16:31:53.107Z,14.07
2023-03-16T16:33:59.627Z,14.03
2023-03-16T16:36:05.509Z,14.04
2023-03-16T16:38:09.116Z,14.04
2023-03-16T16:40:17.827Z,13.97
2023-03-16T16:42:21.697Z,13.92
2023-03-16T16:44:27.612Z,13.88
2023-03-16T16:46:34.578Z,13.85
2023-03-16T16:48:40.425Z,13.82
2023-03-16T16:50:45.696Z,13.76
2023-03-16T16:52:52.331Z,13.70
2023-03-16T16:54:55.790Z,13.65
2023-03-16T16:57:00.885Z,13.60
2023-03-16T16:59:15.922Z,13.52
2023-03-16T17:01:27.825Z,13.47
2023-03-16T17:03:31.894Z,13.44
2023-03-16T17:05:36.128Z,13.40
2023-03-16T17:07:41.972Z,13.35
2023-03-16T17:09:45.582Z,13.29
2023-03-16T17:11:51.098Z,13.26
2023-03-16T17:13:56.151Z,13.23
2023-03-16T17:16:00.490Z,13.20
2023-03-16T17:18:08.268Z,13.16
2023-03-16T17:20:17.108Z,13.13
2023-03-16T17:22:24.915Z,13.11
2023-03-16T17:24:31.520Z,13.08
2023-03-16T17:26:39.840Z,13.06
2023-03-16T17:28:47.442Z,13.00
2023-03-16T17:30:52.829Z,12.96
2023-03-16T17:33:00.351Z,12.90
2023-03-16T17:35:06.518Z,12.83
2023-03-16T17:37:16.339Z,12.78
2023-03-16T17:39:22.677Z,12.73
2023-03-16T17:41:32.429Z,12.68
2023-03-16T17:43:36.714Z,12.63
2023-03-16T17:45:40.482Z,12.58
2023-03-16T17:47:44.277Z,12.55
2023-03-16T17:49:49.181Z,12.51
2023-03-16T17:51:53.674Z,12.48
2023-03-16T17:53:58.085Z,12.47
2023-03-16T17:56:02.030Z,12.43
2023-03-16T17:58:07.682Z,12.40
2023-03-16T18:00:23.039Z,12.37
2023-03-16T18:02:42.289Z,12.34
2023-03-16T18:04:46.403Z,12.30
2023-03-16T18:06:51.307Z,12.28
2023-03-16T18:08:55.121Z,12.23
2023-03-16T18:11:03.901Z,12.17
2023-03-16T18:13:17.376Z,12.13
2023-03-16T18:15:24.864Z,12.08
2023-03-16T18:17:30.279Z,12.05
2023-03-16T18:19:34.062Z,12.00
2023-03-16T18:21:37.796Z,11.96
2023-03-16T18:23:41.398Z,11.92
2023-03-16T18:25:45.495Z,11.88
2023-03-16T18:27:50.001Z,11.84
2023-03-16T18:29:54.824Z,11.80
2023-03-16T18:31:59.430Z,11.77
2023-03-16T18:34:07.279Z,11.75
2023-03-16T18:36:20.051Z,11.72
2023-03-16T18:38:30.781Z,11.68
2023-03-16T18:40:36.500Z,11.65
2023-03-16T18:42:41.168Z,11.60
2023-03-16T18:44:45.392Z,11.57
2023-03-16T18:46:52.336Z,11.54
2023-03-16T18:48:58.298Z,11.50
2023-03-16T18:51:03.330Z,11.46
2023-03-16T18:53:08.456Z,11.44
2023-03-16T18:55:18.084Z,11.42
2023-03-16T18:57:23.516Z,11.39
2023-03-16T18:59:27.594Z,11.38
2023-03-16T19:01:34.158Z,11.37
2023-03-16T19:03:45.094Z,11.33
2023-03-16T19:05:49.224Z,11.30
2023-03-16T19:07:54.694Z,11.26
2023-03-16T19:09:58.504Z,11.23
2023-03-16T19:12:04.128Z,11.19
2023-03-16T19:14:18.140Z,11.14
2023-03-16T19:16:23.659Z,11.12
2023-03-16T19:18:29.723Z,11.09
2023-03-16T19:20:36.294Z,11.07
2023-03-16T19:22:40.318Z,11.04
2023-03-16T19:24:48.728Z,11.02
2023-03-16T19:26:52.576Z,11.00
2023-03-16T19:28:56.698Z,10.97
2023-03-16T19:31:01.169Z,10.96
2023-03-16T19:33:05.141Z,10.92
2023-03-16T19:35:16.749Z,10.91
2023-03-16T19:37:24.074Z,10.90
2023-03-16T19:39:28.870Z,10.89
2023-03-16T19:41:34.938Z,10.86
2023-03-16T19:43:39.208Z,10.82
2023-03-16T19:45:43.354Z,10.78
2023-03-16T19:47:47.741Z,10.77
2023-03-16T19:49:51.771Z,10.73
2023-03-16T19:51:57.278Z,10.73
2023-03-16T19:54:02.713Z,10.71
2023-03-16T19:56:07.664Z,10.72
2023-03-16T19:58:22.683Z,10.72
2023-03-16T20:00:28.529Z,10.73
2023-03-16T20:02:39.142Z,10.71
2023-03-16T20:04:42.798Z,10.71
2023-03-16T20:06:49.690Z,10.69
2023-03-16T20:08:53.754Z,10.70
2023-03-16T20:11:03.334Z,10.69
2023-03-16T20:13:07.891Z,10.68
2023-03-16T20:15:17.011Z,10.66
2023-03-16T20:17:24.648Z,10.65
2023-03-16T20:19:28.828Z,10.62
2023-03-16T20:21:33.344Z,10.60
2023-03-16T20:23:38.170Z,10.58
2023-03-16T20:25:43.025Z,10.57
2023-03-16T20:27:54.031Z,10.55
2023-03-16T20:29:57.861Z,10.53
2023-03-16T20:32:02.391Z,10.52
2023-03-16T20:34:22.793Z,10.47
2023-03-16T20:36:27.570Z,10.45
2023-03-16T20:38:31.178Z,10.40
2023-03-16T20:40:35.272Z,10.38
2023-03-16T20:42:39.125Z,10.36
2023-03-16T20:44:44.861Z,10.31
2023-03-16T20:46:49.002Z,10.30
2023-03-16T20:48:53.352Z,10.26
2023-03-16T20:51:00.271Z,10.27
2023-03-16T20:53:04.130Z,10.23
2023-03-16T20:55:08.802Z,10.21
2023-03-16T20:57:18.063Z,10.19
2023-03-16T20:59:25.028Z,10.19
2023-03-16T21:01:30.599Z,10.18
2023-03-16T21:03:34.981Z,10.16
2023-03-16T21:05:40.300Z,10.17
2023-03-16T21:07:44.118Z,10.18
2023-03-16T21:09:50.353Z,10.18
2023-03-16T21:11:54.627Z,10.15
2023-03-16T21:13:58.383Z,10.16
2023-03-16T21:16:05.038Z,10.16
2023-03-16T21:18:18.574Z,10.16
2023-03-16T21:20:23.479Z,10.16
2023-03-16T21:22:28.858Z,10.18
2023-03-16T21:24:33.217Z,10.18
2023-03-16T21:26:37.894Z,10.19
2023-03-16T21:28:42.511Z,10.19
2023-03-16T21:30:48.172Z,10.19
2023-03-16T21:32:53.805Z,10.20
2023-03-16T21:34:59.472Z,10.19
2023-03-16T21:37:05.606Z,10.19
2023-03-16T21:39:20.664Z,10.19
2023-03-16T21:41:25.909Z,10.20
2023-03-16T21:43:30.164Z,10.19
2023-03-16T21:45:34.252Z,10.19
2023-03-16T21:47:38.505Z,10.19
2023-03-16T21:49:43.697Z,10.19
2023-03-16T21:51:50.210Z,10.19
2023-03-16T21:53:54.698Z,10.20
2023-03-16T21:56:04.928Z,10.20
2023-03-16T21:58:10.806Z,10.19
2023-03-16T22:00:24.407Z,10.19
2023-03-16T22:02:29.112Z,10.19
2023-03-16T22:04:33.168Z,10.19
2023-03-16T22:06:37.553Z,10.19
2023-03-16T22:08:43.144Z,10.17
2023-03-16T22:10:47.083Z,10.16
2023-03-16T22:12:51.886Z,10.15
2023-03-16T22:14:55.718Z,10.14
2023-03-16T22:17:00.300Z,10.12
2023-03-16T22:19:05.447Z,10.10
2023-03-16T22:21:26.594Z,10.08
2023-03-16T22:23:34.803Z,10.08
2023-03-16T22:25:40.708Z,10.07
2023-03-16T22:27:44.886Z,10.06
2023-03-16T22:29:50.303Z,10.05
2023-03-16T22:31:58.107Z,10.03
2023-03-16T22:34:03.255Z,9.99
2023-03-16T22:36:12.555Z,9.98
2023-03-16T22:38:17.694Z,9.95
2023-03-16T22:40:29.974Z,9.95
2023-03-16T22:42:38.013Z,9.94
2023-03-16T22:44:42.340Z,9.93
2023-03-16T22:46:46.252Z,9.93
2023-03-16T22:48:51.199Z,9.92
2023-03-16T22:50:55.797Z,9.91
2023-03-16T22:53:04.709Z,9.91
2023-03-16T22:55:10.444Z,9.89
2023-03-16T22:57:15.748Z,9.88
2023-03-16T22:59:25.654Z,9.87
2023-03-16T23:01:34.677Z,9.88
2023-03-16T23:03:39.911Z,9.89
2023-03-16T23:05:44.141Z,9.90
2023-03-16T23:07:48.698Z,9.90
2023-03-16T23:09:52.505Z,9.92
2023-03-16T23:11:59.967Z,9.89
2023-03-16T23:14:05.580Z,9.88
2023-03-16T23:16:20.740Z,9.87
2023-03-16T23:18:26.845Z,9.86
2023-03-16T23:20:32.960Z,9.83
2023-03-16T23:22:37.400Z,9.82
2023-03-16T23:24:42.750Z,9.75
2023-03-16T23:26:47.342Z,9.71
2023-03-16T23:28:52.869Z,9.66
2023-03-16T23:30:57.023Z,9.63
2023-03-16T23:33:02.882Z,9.64
2023-03-16T23:35:16.764Z,9.60
2023-03-16T23:37:20.767Z,9.59
2023-03-16T23:39:24.732Z,9.60
2023-03-16T23:41:28.462Z,9.59
2023-03-16T23:43:32.435Z,9.58
2023-03-16T23:45:39.979Z,9.54
2023-03-16T23:47:44.110Z,9.54
2023-03-16T23:49:49.130Z,9.52
2023-03-16T23:51:53.918Z,9.49
2023-03-16T23:53:58.043Z,9.48
2023-03-16T23:56:02.261Z,9.47
2023-03-16T23:58:06.418Z,9.48
